Benson Municipal Airport


Codes: KBBB/BBB
Name: Benson Municipal Airport
City: Benson
Country: United States
Elevation: 1039 ft.
Wikipedia:

Photos at Benson Municipal Airport


   Photos courtesy of SpottingLog. You can add your own sightings and photos by signing up for a free trial today.



No photos found.

Weather at Benson Municipal Airport


Time (UTC)DescriptionTempratureWindCloud coverageVisibilityPressureHumidity
17-Jun-2024 06:00Light Rain18°C4 mph, NE33%10000m1008hPa62%
17-Jun-2024 09:00Scattered Clouds16°C0 mph, S40%10000m1009hPa68%
17-Jun-2024 12:00Light Rain15°C7 mph, NE80%10000m1010hPa74%
17-Jun-2024 15:00Heavy Intensity Rain12°C11 mph, N100%0m1010hPa97%
17-Jun-2024 18:00Moderate Rain13°C13 mph, NE100%10000m1010hPa90%
17-Jun-2024 21:00Light Rain17°C11 mph, E100%10000m1008hPa88%
18-Jun-2024 00:00Light Rain16°C11 mph, E100%10000m1005hPa95%
18-Jun-2024 03:00Light Rain17°C16 mph, E100%10000m1002hPa98%
18-Jun-2024 06:00Moderate Rain21°C13 mph, SE99%6194m1000hPa98%
18-Jun-2024 09:00Moderate Rain22°C11 mph, S100%10000m999hPa94%
18-Jun-2024 12:00Light Rain22°C16 mph, S84%10000m999hPa90%
18-Jun-2024 15:00Light Rain25°C18 mph, S53%10000m999hPa84%
18-Jun-2024 18:00Light Rain28°C20 mph, S64%10000m999hPa77%
18-Jun-2024 21:00Light Rain20°C22 mph, NW5%10000m1002hPa89%
19-Jun-2024 00:00Light Rain15°C16 mph, NW52%10000m1008hPa92%
19-Jun-2024 03:00Overcast Clouds13°C13 mph, NW100%10000m1013hPa87%
19-Jun-2024 06:00Overcast Clouds13°C11 mph, NW100%10000m1017hPa84%
19-Jun-2024 09:00Overcast Clouds12°C11 mph, NW100%10000m1020hPa83%
19-Jun-2024 12:00Overcast Clouds12°C9 mph, NW100%10000m1023hPa86%
19-Jun-2024 15:00Overcast Clouds15°C9 mph, N99%10000m1024hPa70%
19-Jun-2024 18:00Overcast Clouds18°C7 mph, NE100%10000m1026hPa60%
19-Jun-2024 21:00Overcast Clouds20°C4 mph, NE100%10000m1025hPa57%
20-Jun-2024 00:00Overcast Clouds19°C4 mph, E94%10000m1025hPa71%
20-Jun-2024 03:00Scattered Clouds15°C4 mph, SE48%10000m1026hPa82%
20-Jun-2024 06:00Broken Clouds14°C7 mph, SE65%10000m1027hPa82%
20-Jun-2024 09:00Overcast Clouds15°C4 mph, E97%10000m1026hPa79%
20-Jun-2024 12:00Light Rain14°C7 mph, E95%10000m1026hPa90%
20-Jun-2024 15:00Light Rain14°C9 mph, E100%10000m1027hPa94%
20-Jun-2024 18:00Light Rain15°C11 mph, E100%10000m1026hPa94%
20-Jun-2024 21:00Moderate Rain14°C11 mph, E100%9927m1024hPa98%
21-Jun-2024 00:00Light Rain16°C7 mph, E100%4323m1022hPa98%
21-Jun-2024 03:00Moderate Rain17°C4 mph, E100%10000m1021hPa99%
21-Jun-2024 06:00Moderate Rain17°C7 mph, E100%1548m1021hPa99%
21-Jun-2024 09:00Moderate Rain18°C7 mph, E100%1116m1019hPa99%
21-Jun-2024 12:00Light Rain19°C4 mph, SE100%10000m1018hPa98%
21-Jun-2024 15:00Overcast Clouds22°C9 mph, S99%10000m1017hPa91%
21-Jun-2024 18:00Light Rain27°C13 mph, SW99%9500m1015hPa76%
21-Jun-2024 21:00Light Rain27°C13 mph, SW100%9736m1012hPa77%
22-Jun-2024 00:00Moderate Rain24°C13 mph, S100%2551m1011hPa85%
22-Jun-2024 03:00Light Rain22°C13 mph, S16%10000m1010hPa91%